createdAt,value
2023-04-24T00:01:54.223Z,96052.44
2023-04-24T00:04:45.816Z,96055.69
2023-04-24T00:07:34.498Z,96050.72
2023-04-24T00:10:23.121Z,96048.56
2023-04-24T00:13:11.540Z,96047.19
2023-04-24T00:15:59.900Z,96047.00
2023-04-24T00:18:49.893Z,96058.81
2023-04-24T00:21:38.636Z,96051.47
2023-04-24T00:24:27.128Z,96053.91
2023-04-24T00:27:15.495Z,96047.91
2023-04-24T00:30:04.425Z,96048.78
2023-04-24T00:32:52.980Z,96047.41
2023-04-24T00:35:42.720Z,96035.69
2023-04-24T00:38:32.868Z,96030.97
2023-04-24T00:41:21.996Z,96036.06
2023-04-24T00:44:10.407Z,96027.59
2023-04-24T00:46:59.031Z,96030.63
2023-04-24T00:49:47.450Z,96031.28
2023-04-24T00:52:38.151Z,96026.88
2023-04-24T00:55:27.035Z,96033.97
2023-04-24T00:58:15.799Z,96030.75
2023-04-24T01:01:08.132Z,96032.09
2023-04-24T01:03:57.717Z,96034.75
2023-04-24T01:06:46.657Z,96027.94
2023-04-24T01:09:37.810Z,96033.19
2023-04-24T01:12:26.217Z,96030.19
2023-04-24T01:15:14.687Z,96031.75
2023-04-24T01:18:05.082Z,96028.28
2023-04-24T01:20:56.009Z,96035.59
2023-04-24T01:23:47.544Z,96026.66
2023-04-24T01:26:36.070Z,96022.16
2023-04-24T01:29:24.943Z,96028.81
2023-04-24T01:32:13.484Z,96029.53
2023-04-24T01:35:02.530Z,96026.50
2023-04-24T01:37:51.443Z,96018.69
2023-04-24T01:40:41.576Z,96018.22
2023-04-24T01:43:30.124Z,96012.06
2023-04-24T01:46:20.339Z,96009.84
2023-04-24T01:49:08.772Z,96009.97
2023-04-24T01:51:57.260Z,96008.88
2023-04-24T01:54:45.723Z,96011.16
2023-04-24T01:57:36.002Z,96002.06
2023-04-24T02:00:25.173Z,95997.97
2023-04-24T02:03:15.247Z,96002.88
2023-04-24T02:06:03.854Z,96000.88
2023-04-24T02:08:53.465Z,95993.00
2023-04-24T02:11:41.887Z,96002.94
2023-04-24T02:14:31.642Z,95995.78
2023-04-24T02:17:20.302Z,95991.97
2023-04-24T02:20:09.803Z,95986.06
2023-04-24T02:23:00.483Z,95985.66
2023-04-24T02:25:49.822Z,95985.47
2023-04-24T02:28:39.521Z,95986.38
2023-04-24T02:31:29.393Z,95989.53
2023-04-24T02:34:17.873Z,95982.88
2023-04-24T02:37:06.278Z,95987.25
2023-04-24T02:39:55.153Z,95984.09
2023-04-24T02:42:43.566Z,95989.47
2023-04-24T02:45:32.010Z,95987.84
2023-04-24T02:48:22.013Z,95986.44
2023-04-24T02:51:10.888Z,95995.00
2023-04-24T02:53:59.291Z,95986.44
2023-04-24T02:56:47.690Z,95986.19
2023-04-24T02:59:36.248Z,95986.59
2023-04-24T03:02:24.799Z,95989.25
2023-04-24T03:05:14.847Z,95986.44
2023-04-24T03:08:03.228Z,95995.16
2023-04-24T03:10:51.587Z,95980.00
2023-04-24T03:13:39.944Z,95989.03
2023-04-24T03:16:28.367Z,95982.50
2023-04-24T03:19:17.280Z,95977.41
2023-04-24T03:22:20.887Z,95982.28
2023-04-24T03:25:10.487Z,95986.75
2023-04-24T03:27:59.657Z,95982.00
2023-04-24T03:31:00.991Z,95989.56
2023-04-24T03:33:53.988Z,95984.25
2023-04-24T03:36:42.394Z,95986.97
2023-04-24T03:39:32.393Z,95991.22
2023-04-24T03:42:20.992Z,95989.81
2023-04-24T03:45:16.109Z,95996.97
2023-04-24T03:48:09.684Z,95998.06
2023-04-24T03:50:58.829Z,96001.53
2023-04-24T03:53:47.251Z,96004.72
2023-04-24T03:56:41.062Z,96001.72
2023-04-24T03:59:29.951Z,96014.34
2023-04-24T04:02:40.087Z,96014.66
2023-04-24T04:05:28.570Z,96011.69
2023-04-24T04:08:16.968Z,96016.38
2023-04-24T04:11:05.599Z,96018.31
2023-04-24T04:13:55.759Z,96026.25
2023-04-24T04:16:44.566Z,96017.97
2023-04-24T04:19:33.465Z,96010.41
2023-04-24T04:22:21.858Z,96019.72
2023-04-24T04:25:14.323Z,96018.63
2023-04-24T04:28:03.050Z,96017.97
2023-04-24T04:30:54.790Z,96014.97
2023-04-24T04:33:43.569Z,96012.59
2023-04-24T04:36:32.309Z,96007.03
2023-04-24T04:39:29.403Z,96012.06
2023-04-24T04:42:41.463Z,96010.63
2023-04-24T04:45:30.122Z,96010.03
2023-04-24T04:48:42.132Z,96013.94
2023-04-24T04:51:32.090Z,96011.13
2023-04-24T04:54:20.558Z,96020.59
2023-04-24T04:57:09.072Z,96025.31
2023-04-24T04:59:58.179Z,96024.56
2023-04-24T05:03:09.071Z,96025.97
2023-04-24T05:06:09.686Z,96026.94
2023-04-24T05:09:00.471Z,96028.78
2023-04-24T05:12:14.655Z,96031.47
2023-04-24T05:15:11.441Z,96037.03
2023-04-24T05:17:59.890Z,96041.97
2023-04-24T05:20:48.954Z,96045.59
2023-04-24T05:23:38.870Z,96048.09
2023-04-24T05:26:27.642Z,96047.47
2023-04-24T05:29:20.159Z,96051.13
2023-04-24T05:32:08.815Z,96055.06
2023-04-24T05:34:57.427Z,96050.59
2023-04-24T05:37:46.010Z,96054.06
2023-04-24T05:40:36.466Z,96052.19
2023-04-24T05:43:24.837Z,96047.28
2023-04-24T05:46:13.986Z,96047.41
2023-04-24T05:49:03.028Z,96052.19
2023-04-24T05:51:53.483Z,96054.88
2023-04-24T05:54:41.889Z,96052.94
2023-04-24T05:57:33.732Z,96057.06
2023-04-24T06:00:26.018Z,96066.56
2023-04-24T06:03:21.985Z,96063.69
2023-04-24T06:06:10.746Z,96059.63
2023-04-24T06:08:59.875Z,96055.34
2023-04-24T06:11:49.626Z,96057.84
2023-04-24T06:14:39.422Z,96063.59
2023-04-24T06:17:40.877Z,96050.59
2023-04-24T06:20:29.497Z,96063.84
2023-04-24T06:23:17.838Z,96058.47
2023-04-24T06:26:06.583Z,96059.63
2023-04-24T06:28:55.881Z,96058.06
2023-04-24T06:31:45.712Z,96067.88
2023-04-24T06:34:35.186Z,96065.00
2023-04-24T06:37:23.891Z,96068.97
2023-04-24T06:40:12.595Z,96062.97
2023-04-24T06:43:01.148Z,96063.41
2023-04-24T06:45:49.594Z,96058.66
2023-04-24T06:48:39.404Z,96063.75
2023-04-24T06:51:28.609Z,96061.50
2023-04-24T06:54:17.030Z,96059.75
2023-04-24T06:57:05.465Z,96068.13
2023-04-24T06:59:53.900Z,96061.09
2023-04-24T07:02:42.544Z,96064.28
2023-04-24T07:05:32.333Z,96063.97
2023-04-24T07:08:21.662Z,96077.09
2023-04-24T07:11:10.051Z,96073.00
2023-04-24T07:13:58.449Z,96071.13
2023-04-24T07:16:47.360Z,96081.25
2023-04-24T07:19:37.399Z,96082.69
2023-04-24T07:22:27.491Z,96073.66
2023-04-24T07:25:15.931Z,96086.66
2023-04-24T07:28:05.570Z,96081.56
2023-04-24T07:30:55.186Z,96078.25
2023-04-24T07:33:43.611Z,96089.19
2023-04-24T07:36:33.356Z,96072.84
2023-04-24T07:39:23.126Z,96080.41
2023-04-24T07:42:12.444Z,96077.25
2023-04-24T07:45:01.204Z,96070.56
2023-04-24T07:47:49.699Z,96087.50
2023-04-24T07:50:38.261Z,96087.38
2023-04-24T07:53:26.750Z,96096.91
2023-04-24T07:56:16.489Z,96096.06
2023-04-24T07:59:04.934Z,96100.13
2023-04-24T08:01:53.329Z,96095.38
2023-04-24T08:04:41.924Z,96097.06
2023-04-24T08:07:30.518Z,96098.94
2023-04-24T08:10:18.946Z,96103.78
2023-04-24T08:13:08.762Z,96103.38
2023-04-24T08:15:58.564Z,96099.13
2023-04-24T08:18:46.975Z,96100.69
2023-04-24T08:21:35.449Z,96103.84
2023-04-24T08:24:24.173Z,96107.38
2023-04-24T08:27:12.660Z,96113.03
2023-04-24T08:30:02.487Z,96110.25
2023-04-24T08:32:51.165Z,96113.81
2023-04-24T08:35:39.909Z,96119.41
2023-04-24T08:38:28.363Z,96118.00
2023-04-24T08:41:17.788Z,96118.28
2023-04-24T08:44:07.962Z,96120.78
2023-04-24T08:46:59.400Z,96130.16
2023-04-24T08:49:50.359Z,96153.06
2023-04-24T08:52:38.842Z,96172.69
2023-04-24T08:55:27.807Z,96172.84
2023-04-24T08:58:16.637Z,96182.19
2023-04-24T09:01:05.410Z,96176.97
2023-04-24T09:03:55.931Z,96181.72
2023-04-24T09:06:44.617Z,96176.16
2023-04-24T09:09:33.429Z,96180.94
2023-04-24T09:12:22.303Z,96180.91
2023-04-24T09:15:11.439Z,96181.53
2023-04-24T09:18:00.060Z,96177.59
2023-04-24T09:21:03.176Z,96173.91
2023-04-24T09:24:00.329Z,96183.53
2023-04-24T09:26:48.902Z,96168.34
2023-04-24T09:29:37.452Z,96165.97
2023-04-24T09:32:27.223Z,96162.50
2023-04-24T09:35:17.120Z,96174.47
2023-04-24T09:38:06.854Z,96181.63
2023-04-24T09:40:55.231Z,96180.97
2023-04-24T09:43:43.575Z,96182.09
2023-04-24T09:46:33.391Z,96174.66
2023-04-24T09:49:24.734Z,96188.66
2023-04-24T09:52:13.755Z,96184.72
2023-04-24T09:55:03.873Z,96182.47
2023-04-24T09:57:53.895Z,96180.06
2023-04-24T10:00:42.397Z,96181.06
2023-04-24T10:03:32.380Z,96181.34
2023-04-24T10:06:21.149Z,96184.03
2023-04-24T10:09:12.018Z,96186.13
2023-04-24T10:12:03.137Z,96186.56
2023-04-24T10:14:52.756Z,96185.63
2023-04-24T10:17:42.413Z,96188.22
2023-04-24T10:20:31.854Z,96184.59
2023-04-24T10:23:21.253Z,96183.47
2023-04-24T10:26:11.277Z,96183.41
2023-04-24T10:29:01.581Z,96179.09
2023-04-24T10:31:50.146Z,96177.44
2023-04-24T10:34:38.578Z,96170.16
2023-04-24T10:37:28.140Z,96172.91
2023-04-24T10:40:20.144Z,96171.09
2023-04-24T10:43:12.076Z,96174.66
2023-04-24T10:46:06.065Z,96174.34
2023-04-24T10:48:56.269Z,96168.19
2023-04-24T10:51:49.902Z,96160.13
2023-04-24T10:54:39.227Z,96163.91
2023-04-24T10:57:30.330Z,96165.72
2023-04-24T11:00:21.709Z,96166.41
2023-04-24T11:03:26.611Z,96168.47
2023-04-24T11:06:15.187Z,96165.50
2023-04-24T11:09:07.626Z,96163.25
2023-04-24T11:12:06.748Z,96171.59
2023-04-24T11:15:03.508Z,96161.44
2023-04-24T11:17:58.008Z,96167.19
2023-04-24T11:20:48.930Z,96156.91
2023-04-24T11:23:38.267Z,96162.03
2023-04-24T11:26:33.189Z,96170.41
2023-04-24T11:29:22.915Z,96198.47
2023-04-24T11:32:26.043Z,96226.22
2023-04-24T11:35:17.348Z,96223.97
2023-04-24T11:38:23.499Z,96229.84
2023-04-24T11:41:13.742Z,96233.19
2023-04-24T11:44:02.403Z,96228.91
2023-04-24T11:46:50.826Z,96230.63
2023-04-24T11:49:39.218Z,96222.09
2023-04-24T11:52:27.970Z,96222.69
2023-04-24T11:55:28.688Z,96214.34
2023-04-24T11:58:17.257Z,96219.50
2023-04-24T12:01:06.367Z,96222.81
2023-04-24T12:04:02.126Z,96220.09
2023-04-24T12:07:03.039Z,96212.66
2023-04-24T12:09:57.404Z,96220.13
2023-04-24T12:12:48.058Z,96209.50
2023-04-24T12:15:36.498Z,96218.81
2023-04-24T12:18:25.152Z,96207.19
2023-04-24T12:21:22.706Z,96209.84
2023-04-24T12:24:11.624Z,96209.13
2023-04-24T12:27:02.498Z,96215.69
2023-04-24T12:29:56.507Z,96206.03
2023-04-24T12:32:45.756Z,96209.41
2023-04-24T12:35:36.779Z,96199.72
2023-04-24T12:38:26.586Z,96193.22
2023-04-24T12:41:15.878Z,96193.44
2023-04-24T12:44:04.255Z,96197.44
2023-04-24T12:46:54.130Z,96194.22
2023-04-24T12:49:42.544Z,96179.84
2023-04-24T12:52:32.152Z,96179.66
2023-04-24T12:55:20.560Z,96181.03
2023-04-24T12:58:09.057Z,96172.78
2023-04-24T13:00:57.453Z,96174.41
2023-04-24T13:03:47.508Z,96173.38
2023-04-24T13:06:36.160Z,96166.75
2023-04-24T13:09:24.808Z,96181.16
2023-04-24T13:12:13.967Z,96177.22
2023-04-24T13:15:02.400Z,96168.00
2023-04-24T13:17:52.823Z,96176.56
2023-04-24T13:20:43.143Z,96184.66
2023-04-24T13:23:31.552Z,96194.84
2023-04-24T13:26:20.001Z,96196.19
2023-04-24T13:29:08.711Z,96199.22
2023-04-24T13:31:57.623Z,96189.34
2023-04-24T13:34:46.020Z,96191.75
2023-04-24T13:37:35.805Z,96195.47
2023-04-24T13:40:24.256Z,96185.31
2023-04-24T13:43:12.664Z,96189.50
2023-04-24T13:46:03.888Z,96185.09
2023-04-24T13:48:52.362Z,96185.78
2023-04-24T13:51:41.050Z,96181.47
2023-04-24T13:54:30.822Z,96180.31
2023-04-24T13:57:19.246Z,96176.44
2023-04-24T14:00:11.570Z,96194.00
2023-04-24T14:03:00.548Z,96184.09
2023-04-24T14:05:49.004Z,96208.97
2023-04-24T14:08:37.412Z,96208.06
2023-04-24T14:11:28.686Z,96226.53
2023-04-24T14:14:17.168Z,96207.47
2023-04-24T14:17:05.804Z,96205.50
2023-04-24T14:19:57.240Z,96207.16
2023-04-24T14:22:45.816Z,96207.38
2023-04-24T14:25:34.221Z,96206.38
2023-04-24T14:28:24.128Z,96206.06
2023-04-24T14:31:12.667Z,96210.13
2023-04-24T14:34:01.257Z,96214.41
2023-04-24T14:36:49.862Z,96219.81
2023-04-24T14:39:38.316Z,96221.81
2023-04-24T14:42:26.960Z,96207.97
2023-04-24T14:45:16.893Z,96221.25
2023-04-24T14:48:05.676Z,96223.66
2023-04-24T14:50:54.043Z,96219.66
2023-04-24T14:53:42.453Z,96227.94
2023-04-24T14:56:31.199Z,96220.88
2023-04-24T14:59:19.591Z,96220.66
2023-04-24T15:05:04.332Z,96240.31
2023-04-24T15:07:52.904Z,96242.28
2023-04-24T15:10:41.281Z,96235.75
2023-04-24T15:13:29.722Z,96238.00
2023-04-24T15:16:18.603Z,96229.81
2023-04-24T15:19:08.506Z,96241.47
2023-04-24T15:21:56.846Z,96244.75
2023-04-24T15:24:45.250Z,96241.25
2023-04-24T15:27:42.523Z,96245.63
2023-04-24T15:30:31.503Z,96244.09
2023-04-24T15:33:19.942Z,96242.19
2023-04-24T15:36:10.202Z,96246.13
2023-04-24T15:38:58.566Z,96247.47
2023-04-24T15:41:46.999Z,96247.25
2023-04-24T15:44:35.385Z,96256.00
2023-04-24T15:47:23.843Z,96260.94
2023-04-24T15:50:14.453Z,96270.88
2023-04-24T15:53:04.528Z,96258.50
2023-04-24T15:55:53.994Z,96264.38
2023-04-24T15:58:42.362Z,96264.19
2023-04-24T16:01:31.428Z,96260.13
2023-04-24T16:04:19.990Z,96257.09
2023-04-24T16:07:08.765Z,96271.41
2023-04-24T16:09:58.457Z,96263.34
2023-04-24T16:12:46.848Z,96266.91
2023-04-24T16:15:36.333Z,96273.91
2023-04-24T16:18:24.835Z,96279.56
2023-04-24T16:21:13.250Z,96273.56
2023-04-24T16:24:01.634Z,96282.25
2023-04-24T16:26:51.649Z,96288.19
2023-04-24T16:29:40.136Z,96288.50
2023-04-24T16:32:28.609Z,96286.28
2023-04-24T16:35:17.176Z,96286.03
2023-04-24T16:38:05.612Z,96286.44
2023-04-24T16:40:53.988Z,96280.94
2023-04-24T16:43:43.723Z,96281.31
2023-04-24T16:46:32.108Z,96289.72
2023-04-24T16:49:20.631Z,96297.22
2023-04-24T16:52:09.174Z,96292.72
2023-04-24T16:54:57.600Z,96298.63
2023-04-24T16:57:45.995Z,96298.25
2023-04-24T17:00:36.825Z,96304.19
2023-04-24T17:03:25.557Z,96302.53
2023-04-24T17:06:14.172Z,96303.13
2023-04-24T17:09:02.579Z,96296.47
2023-04-24T17:11:51.064Z,96308.34
2023-04-24T17:14:39.481Z,96308.19
2023-04-24T17:17:29.442Z,96321.63
2023-04-24T17:20:22.873Z,96318.50
2023-04-24T17:23:13.711Z,96320.13
2023-04-24T17:26:02.217Z,96336.75
2023-04-24T17:28:50.928Z,96336.94
2023-04-24T17:31:39.584Z,96334.00
2023-04-24T17:34:29.338Z,96329.22
2023-04-24T17:37:19.808Z,96335.09
2023-04-24T17:40:10.622Z,96335.28
2023-04-24T17:42:59.013Z,96330.88
2023-04-24T17:45:47.524Z,96337.66
2023-04-24T17:48:36.825Z,96346.72
2023-04-24T17:51:27.751Z,96343.13
2023-04-24T17:54:18.150Z,96343.13
2023-04-24T17:57:06.809Z,96341.91
2023-04-24T17:59:55.300Z,96343.00
2023-04-24T18:02:43.816Z,96348.06
2023-04-24T18:05:33.058Z,96326.91
2023-04-24T18:08:22.801Z,96351.72
2023-04-24T18:11:11.260Z,96358.06
2023-04-24T18:13:59.846Z,96354.72
2023-04-24T18:16:48.179Z,96363.63
2023-04-24T18:19:36.774Z,96361.19
2023-04-24T18:22:25.169Z,96375.19
2023-04-24T18:25:15.613Z,96364.72
2023-04-24T18:28:04.030Z,96370.84
2023-04-24T18:30:52.448Z,96378.75
2023-04-24T18:33:40.912Z,96377.97
2023-04-24T18:36:29.234Z,96385.41
2023-04-24T18:39:17.612Z,96386.84
2023-04-24T18:42:07.400Z,96392.25
2023-04-24T18:45:01.197Z,96396.66
2023-04-24T18:47:50.151Z,96393.66
2023-04-24T18:50:40.649Z,96398.41
2023-04-24T18:53:29.050Z,96402.66
2023-04-24T18:56:17.512Z,96405.19
2023-04-24T18:59:07.316Z,96413.75
2023-04-24T19:01:55.742Z,96408.34
2023-04-24T19:04:44.217Z,96406.91
2023-04-24T19:07:32.742Z,96411.19
2023-04-24T19:10:21.167Z,96428.06
2023-04-24T19:13:09.545Z,96429.66
2023-04-24T19:15:59.328Z,96432.97
2023-04-24T19:18:47.918Z,96426.00
2023-04-24T19:21:36.592Z,96429.03
2023-04-24T19:24:26.059Z,96425.81
2023-04-24T19:27:14.446Z,96424.84
2023-04-24T19:30:02.871Z,96426.75
2023-04-24T19:32:52.796Z,96424.38
2023-04-24T19:35:41.225Z,96430.41
2023-04-24T19:38:29.683Z,96438.94
2023-04-24T19:41:18.070Z,96440.66
2023-04-24T19:44:06.505Z,96441.44
2023-04-24T19:46:54.891Z,96435.13
2023-04-24T19:49:44.602Z,96442.81
2023-04-24T19:52:32.967Z,96436.16
2023-04-24T19:55:21.378Z,96445.09
2023-04-24T19:58:09.802Z,96446.97
2023-04-24T20:00:58.578Z,96441.78
2023-04-24T20:03:47.093Z,96445.56
2023-04-24T20:06:36.976Z,96448.56
2023-04-24T20:09:25.371Z,96442.03
2023-04-24T20:12:13.876Z,96442.03
2023-04-24T20:15:02.395Z,96453.41
2023-04-24T20:17:50.816Z,96446.88
2023-04-24T20:20:41.646Z,96448.91
2023-04-24T20:23:31.461Z,96451.09
2023-04-24T20:26:19.840Z,96450.75
2023-04-24T20:29:08.820Z,96453.75
2023-04-24T20:31:57.546Z,96456.16
2023-04-24T20:34:46.070Z,96455.47
2023-04-24T20:37:35.107Z,96461.41
2023-04-24T20:40:24.880Z,96453.47
2023-04-24T20:43:13.239Z,96443.16
2023-04-24T20:46:01.955Z,96440.59
2023-04-24T20:48:50.810Z,96447.16
2023-04-24T20:51:39.332Z,96446.53
2023-04-24T20:54:27.922Z,96445.97
2023-04-24T20:57:17.660Z,96450.72
2023-04-24T21:00:08.776Z,96448.84
2023-04-24T21:02:57.242Z,96437.44
2023-04-24T21:05:45.872Z,96443.22
2023-04-24T21:08:34.545Z,96444.00
2023-04-24T21:11:22.976Z,96438.50
2023-04-24T21:14:12.835Z,96440.66
2023-04-24T21:17:01.857Z,96427.66
2023-04-24T21:19:50.267Z,96430.34
2023-04-24T21:22:38.630Z,96428.19
2023-04-24T21:25:27.149Z,96429.81
2023-04-24T21:28:16.077Z,96433.38
2023-04-24T21:31:05.810Z,96437.25
2023-04-24T21:33:54.202Z,96433.97
2023-04-24T21:36:42.589Z,96425.72
2023-04-24T21:39:30.972Z,96435.75
2023-04-24T21:42:19.441Z,96428.91
2023-04-24T21:45:08.910Z,96433.97
2023-04-24T21:47:59.745Z,96443.31
2023-04-24T21:50:48.501Z,96437.75
2023-04-24T21:53:36.858Z,96435.47
2023-04-24T21:56:25.392Z,96434.19
2023-04-24T21:59:14.242Z,96425.47
2023-04-24T22:02:02.698Z,96431.19
2023-04-24T22:04:53.039Z,96427.03
2023-04-24T22:07:41.526Z,96422.56
2023-04-24T22:10:29.982Z,96420.47
2023-04-24T22:13:18.382Z,96414.03
2023-04-24T22:16:07.428Z,96412.94
2023-04-24T22:18:56.099Z,96401.66
2023-04-24T22:21:45.869Z,96405.41
2023-04-24T22:24:34.274Z,96404.63
2023-04-24T22:27:22.678Z,96404.50
2023-04-24T22:30:11.900Z,96401.66
2023-04-24T22:33:00.434Z,96402.03
2023-04-24T22:35:48.883Z,96392.31
2023-04-24T22:38:38.690Z,96403.94
2023-04-24T22:41:27.165Z,96404.03
2023-04-24T22:44:15.569Z,96409.47
2023-04-24T22:47:07.063Z,96400.44
2023-04-24T22:49:57.524Z,96401.06
2023-04-24T22:52:45.993Z,96391.31
2023-04-24T22:55:36.666Z,96387.03
2023-04-24T22:58:25.492Z,96383.78
2023-04-24T23:01:13.926Z,96373.47
2023-04-24T23:04:02.624Z,96373.66
2023-04-24T23:06:51.076Z,96370.09
2023-04-24T23:09:39.437Z,96375.53
2023-04-24T23:12:29.755Z,96373.38
2023-04-24T23:15:18.267Z,96374.47
2023-04-24T23:18:06.858Z,96365.72
2023-04-24T23:20:55.321Z,96357.00
2023-04-24T23:23:43.816Z,96367.94
2023-04-24T23:26:32.683Z,96367.13
2023-04-24T23:29:23.215Z,96362.88
2023-04-24T23:32:11.694Z,96364.47
2023-04-24T23:35:00.212Z,96363.84
2023-04-24T23:37:48.643Z,96359.19
2023-04-24T23:40:37.120Z,96356.31
2023-04-24T23:43:26.556Z,96351.75
2023-04-24T23:46:16.362Z,96335.78
2023-04-24T23:49:05.171Z,96336.59
2023-04-24T23:51:53.644Z,96331.78
2023-04-24T23:54:42.003Z,96323.88
2023-04-24T23:57:30.616Z,96334.81
